Portada
METAR-TAF:

METAR-TAF

Aeroports :

Chester, Connecticut, Estats Units d'Amèrica

latitud: 41-23-02N, longitud: 072-30-21W, altitud: 127 m

Observació

L'informe es va fer fa 23 minuts, a les 19:55 UTC
Vent 8 kt del Sud/Sud-Oest amb ràfegues de 14 kt
Temperatura 11°C
Humitat 40%
Pressió 1014 hPa
Visibilitat: 16.1 km
Cel clar

METAR: KSNC 241955Z AUTO 20008G14KT 10SM CLR 11/M02 A2994 RMK AO2

Hora: 15:18 (20:18 UTC)


TAF: manca

Observacions i pronòstics meteorològics de més de 4000 aeroports (METAR i TAF).

Les estacions disponibles són els punts grocs i vermells al mapa.

Posi el ratolí al punt desitjat per veure el nom de l'estació.

Feu clic per veure les observacions i els pronòstics meteorològics.

Per canviar el mapa: feu clic els botons verds amb una creu de color negre per apropar; al botó verd amb un guió per allunyar la imatge; o en les fletxes verdes per a mapes adjacents.


METAR-TAF: